Time;durP1;ratioP1;P1;durP2;ratioP2;P2;SDS_P1;SDS_P2;PMS_P1;PMS_P2;Temp;Humidity;BMP_temperature;BMP_pressure;BME280_temperature;BME280_humidity;BME280_pressure;Samples;Min_cycle;Max_cycle;Signal;HPM_P1;HPM_P2
2023/10/16 00:00:45;;;;;;;1.35;0.57;;;20.00;57.00;;;;;;6275213;22;45091;-59
2023/10/16 00:03:14;;;;;;;1.33;0.40;;;20.10;58.80;;;;;;6276231;22;45233;-59
2023/10/16 00:05:48;;;;;;;1.38;0.80;;;20.10;57.70;;;;;;6275263;22;45104;-59
2023/10/16 00:08:17;;;;;;;2.53;0.77;;;20.10;57.70;;;;;;6275179;22;45966;-59
2023/10/16 00:10:55;;;;;;;1.20;0.65;;;20.10;57.90;;;;;;6275768;22;45050;-59
2023/10/16 00:13:26;;;;;;;1.45;0.68;;;20.10;58.20;;;;;;6276137;22;45126;-59
2023/10/16 00:15:55;;;;;;;2.22;0.70;;;20.10;58.20;;;;;;6274227;22;48696;-59
2023/10/16 00:18:24;;;;;;;2.85;0.82;;;20.10;58.30;;;;;;6275228;22;45091;-59
2023/10/16 00:20:52;;;;;;;0.90;0.80;;;20.10;58.50;;;;;;6275841;22;45115;-59
2023/10/16 00:23:24;;;;;;;1.33;0.75;;;20.10;58.40;;;;;;6276223;22;45065;-59
2023/10/16 00:25:51;;;;;;;2.38;0.90;;;20.20;58.60;;;;;;6275600;22;47202;-59
2023/10/16 00:28:21;;;;;;;2.15;0.63;;;20.10;58.50;;;;;;6275258;22;45109;-59
2023/10/16 00:30:49;;;;;;;1.80;0.80;;;20.20;58.60;;;;;;6275730;22;45059;-59
2023/10/16 00:33:17;;;;;;;2.10;0.80;;;20.20;58.70;;;;;;6276235;22;45107;-59
2023/10/16 00:35:45;;;;;;;2.08;0.80;;;20.20;58.80;;;;;;6275238;22;47142;-59
2023/10/16 00:38:13;;;;;;;1.40;0.80;;;20.20;58.90;;;;;;6275498;22;45150;-59
2023/10/16 00:40:44;;;;;;;1.90;0.73;;;20.20;58.80;;;;;;6274210;22;44712;-60
2023/10/16 00:43:17;;;;;;;2.33;1.02;;;20.10;58.80;;;;;;6276452;22;45094;-60
2023/10/16 00:45:47;;;;;;;1.55;0.82;;;20.20;58.80;;;;;;6274923;22;45421;-60
2023/10/16 00:48:17;;;;;;;1.52;0.60;;;20.20;58.60;;;;;;6275422;22;45050;-60
2023/10/16 00:50:44;;;;;;;1.13;0.73;;;20.10;58.50;;;;;;6275419;22;45050;-60
2023/10/16 00:53:12;;;;;;;1.85;0.90;;;20.10;58.50;;;;;;6276021;22;45093;-60
2023/10/16 00:55:39;;;;;;;1.30;0.60;;;20.10;60.00;;;;;;6274814;22;45567;-60
2023/10/16 00:58:07;;;;;;;0.68;0.57;;;20.20;58.80;;;;;;6274945;22;45553;-60
2023/10/16 01:00:37;;;;;;;0.75;0.52;;;20.10;58.70;;;;;;6275368;22;45113;-60
2023/10/16 01:03:05;;;;;;;0.80;0.52;;;20.10;58.60;;;;;;6276048;22;45356;-59
2023/10/16 01:05:39;;;;;;;0.60;0.47;;;20.10;58.90;;;;;;6275105;22;46487;-60
2023/10/16 01:08:07;;;;;;;3.45;0.70;;;20.10;58.60;;;;;;6275605;22;45248;-59
2023/10/16 01:10:35;;;;;;;2.00;0.90;;;20.10;58.80;;;;;;6275440;22;45229;-59
2023/10/16 01:13:07;;;;;;;1.38;0.75;;;20.10;58.70;;;;;;6276401;22;45027;-59
2023/10/16 01:15:36;;;;;;;1.27;0.68;;;20.10;58.50;;;;;;6275336;22;47261;-59
2023/10/16 01:18:06;;;;;;;1.77;0.70;;;20.10;58.60;;;;;;6276403;22;45223;-59
2023/10/16 01:20:34;;;;;;;1.02;0.60;;;20.10;58.60;;;;;;6276888;22;45136;-59
2023/10/16 01:23:07;;;;;;;1.45;0.80;;;20.10;60.00;;;;;;6277437;22;44971;-59
2023/10/16 01:25:33;;;;;;;3.17;0.80;;;20.20;58.50;;;;;;6276274;22;45385;-59
2023/10/16 01:28:03;;;;;;;1.27;0.73;;;20.10;58.40;;;;;;6276004;22;45677;-59
2023/10/16 01:30:30;;;;;;;2.67;0.90;;;20.20;58.50;;;;;;6276858;22;44613;-59
2023/10/16 01:32:57;;;;;;;1.45;0.70;;;20.20;58.30;;;;;;6277114;22;45360;-59
2023/10/16 01:35:24;;;;;;;1.60;0.85;;;20.20;58.10;;;;;;6276101;22;46221;-59
2023/10/16 01:37:52;;;;;;;1.02;0.60;;;20.10;58.10;;;;;;6276423;22;45613;-59
2023/10/16 01:40:25;;;;;;;2.95;1.17;;;20.20;58.30;;;;;;6276339;22;45050;-60
2023/10/16 01:42:56;;;;;;;2.80;1.00;;;20.10;58.10;;;;;;6276874;22;45343;-59
2023/10/16 01:45:23;;;;;;;1.77;0.90;;;20.10;58.10;;;;;;6275270;22;46148;-59
2023/10/16 01:47:50;;;;;;;1.73;0.98;;;20.20;58.20;;;;;;6275531;22;45058;-59
2023/10/16 01:50:21;;;;;;;2.40;1.00;;;20.20;58.60;;;;;;6276415;22;45059;-59
2023/10/16 01:52:49;;;;;;;2.28;0.80;;;20.10;58.50;;;;;;6277310;22;45010;-59
2023/10/16 01:55:17;;;;;;;1.92;0.80;;;20.10;58.70;;;;;;6276512;22;45100;-59
2023/10/16 01:57:47;;;;;;;1.33;0.80;;;20.10;58.80;;;;;;6275973;22;45074;-59
2023/10/16 02:00:18;;;;;;;1.70;0.80;;;20.10;58.70;;;;;;6277146;22;45049;-59
2023/10/16 02:02:45;;;;;;;1.52;0.82;;;20.10;58.60;;;;;;6277020;22;45340;-59
2023/10/16 02:05:13;;;;;;;0.73;0.63;;;20.10;58.50;;;;;;6276378;22;46282;-59
2023/10/16 02:07:43;;;;;;;1.02;0.75;;;20.10;58.50;;;;;;6275891;22;45303;-59
2023/10/16 02:10:12;;;;;;;2.25;0.80;;;20.10;58.60;;;;;;6277159;22;45070;-59
2023/10/16 02:12:39;;;;;;;1.00;0.70;;;20.10;58.30;;;;;;6276144;22;45098;-59
2023/10/16 02:15:09;;;;;;;2.05;0.75;;;20.10;58.40;;;;;;6276448;22;45354;-59
2023/10/16 02:17:38;;;;;;;1.08;0.80;;;20.10;58.10;;;;;;6275490;22;45117;-59
2023/10/16 02:20:11;;;;;;;1.40;0.90;;;20.10;57.80;;;;;;6273916;22;45121;-59
2023/10/16 02:22:40;;;;;;;2.28;0.80;;;20.10;57.60;;;;;;6276586;22;45185;-59
2023/10/16 02:25:10;;;;;;;1.52;0.77;;;20.10;57.50;;;;;;6275759;22;45059;-59
2023/10/16 02:27:36;;;;;;;1.45;0.80;;;20.10;58.00;;;;;;6275755;22;45778;-59
2023/10/16 02:30:15;;;;;;;3.78;1.10;;;20.10;57.70;;;;;;6276630;22;45069;-59
2023/10/16 02:32:44;;;;;;;1.17;0.80;;;20.10;57.60;;;;;;6276768;22;45300;-59
2023/10/16 02:35:13;;;;;;;1.75;0.90;;;20.10;57.50;;;;;;6276533;22;45273;-59
2023/10/16 02:37:40;;;;;;;3.13;1.13;;;20.10;57.40;;;;;;6275387;22;45044;-59
2023/10/16 02:40:11;;;;;;;1.88;1.00;;;20.10;57.40;;;;;;6276829;22;45057;-59
2023/10/16 02:42:39;;;;;;;1.23;0.68;;;20.10;57.40;;;;;;6276690;22;45137;-59
2023/10/16 02:45:16;;;;;;;1.55;0.88;;;20.10;57.40;;;;;;6276355;22;47224;-59
2023/10/16 02:47:46;;;;;;;1.52;0.90;;;20.10;57.60;;;;;;6275697;22;45486;-59
2023/10/16 02:50:14;;;;;;;2.85;0.70;;;20.10;57.50;;;;;;6276468;22;45103;-59
2023/10/16 02:52:41;;;;;;;1.92;0.88;;;20.10;57.40;;;;;;6276157;22;45116;-59
2023/10/16 02:55:11;;;;;;;1.33;0.65;;;20.10;57.70;;;;;;6276200;22;46396;-59
2023/10/16 02:57:40;;;;;;;2.97;0.90;;;20.10;57.60;;;;;;6275132;22;45142;-59
2023/10/16 03:00:15;;;;;;;1.85;0.93;;;20.10;57.30;;;;;;6276790;22;45051;-59
2023/10/16 03:02:43;;;;;;;1.77;0.85;;;20.10;57.30;;;;;;6276314;22;45165;-59
2023/10/16 03:05:21;;;;;;;1.88;0.80;;;20.10;57.30;;;;;;6276305;22;47157;-59
2023/10/16 03:07:49;;;;;;;2.05;0.82;;;20.10;57.30;;;;;;6275668;22;45081;-59
2023/10/16 03:10:17;;;;;;;2.50;1.10;;;20.10;56.70;;;;;;6276057;22;45122;-59
2023/10/16 03:12:44;;;;;;;2.05;0.98;;;20.10;56.90;;;;;;6275700;22;44954;-59
2023/10/16 03:15:20;;;;;;;1.50;1.00;;;20.10;57.00;;;;;;6274950;22;46416;-59
2023/10/16 03:17:50;;;;;;;1.33;0.93;;;20.00;56.30;;;;;;6275131;22;45607;-59
2023/10/16 03:20:22;;;;;;;1.33;1.05;;;20.10;56.20;;;;;;6275831;22;45068;-59
2023/10/16 03:22:50;;;;;;;3.92;0.88;;;20.00;56.10;;;;;;6276749;22;45256;-59
2023/10/16 03:25:50;;;;;;;3.25;1.30;;;20.00;56.10;;;;;;6275524;22;45501;-59
2023/10/16 03:28:13;;;;;;;3.05;1.00;;;20.10;55.90;;;;;;6275352;22;45102;-59
2023/10/16 03:30:42;;;;;;;2.25;1.08;;;20.10;56.00;;;;;;6274910;22;45020;-59
2023/10/16 03:33:13;;;;;;;4.78;1.65;;;20.10;56.00;;;;;;6275789;22;45100;-59
2023/10/16 03:35:45;;;;;;;1.30;0.80;;;20.10;56.10;;;;;;6273512;22;47461;-59
2023/10/16 03:38:20;;;;;;;2.28;1.23;;;20.10;56.00;;;;;;6275525;22;45933;-59
2023/10/16 03:40:51;;;;;;;2.25;1.00;;;20.10;56.20;;;;;;6276112;22;45089;-59
2023/10/16 03:43:17;;;;;;;1.83;0.85;;;20.10;56.10;;;;;;6276103;22;45272;-59
2023/10/16 03:45:44;;;;;;;1.60;0.85;;;20.10;55.80;;;;;;6275032;22;46219;-59
2023/10/16 03:48:11;;;;;;;1.88;1.15;;;20.10;55.60;;;;;;6275757;22;44555;-59
2023/10/16 03:50:39;;;;;;;1.17;0.65;;;20.10;55.50;;;;;;6276073;22;45052;-59
2023/10/16 03:53:08;;;;;;;2.80;1.05;;;20.10;55.50;;;;;;6275853;22;45114;-59
2023/10/16 03:55:44;;;;;;;2.05;0.90;;;20.10;55.80;;;;;;6275371;22;48130;-58
2023/10/16 03:58:13;;;;;;;1.38;0.85;;;20.10;57.10;;;;;;6275425;22;45100;-59
2023/10/16 04:00:55;;;;;;;3.10;0.90;;;20.10;56.00;;;;;;6274661;22;45066;-59
2023/10/16 04:03:23;;;;;;;2.47;1.13;;;20.10;56.00;;;;;;6276218;22;44719;-59
2023/10/16 04:05:51;;;;;;;2.53;0.88;;;20.00;54.20;;;;;;6274622;22;46336;-59
2023/10/16 04:08:23;;;;;;;2.38;1.30;;;20.00;52.20;;;;;;6273919;22;45034;-58
2023/10/16 04:10:53;;;;;;;2.63;1.30;;;20.00;50.40;;;;;;6275778;22;45074;-58
2023/10/16 04:13:25;;;;;;;2.72;1.10;;;19.90;49.60;;;;;;6275570;22;45108;-59
2023/10/16 04:16:09;;;;;;;2.53;1.13;;;19.90;49.20;;;;;;6274393;22;48070;-58
2023/10/16 04:18:39;;;;;;;1.40;0.98;;;19.90;48.20;;;;;;6275823;22;45271;-60
2023/10/16 04:21:37;;;;;;;2.47;1.00;;;19.80;47.90;;;;;;6275775;22;45135;-60
2023/10/16 04:24:16;;;;;;;4.35;1.30;;;19.80;47.60;;;;;;6274121;22;45472;-60
2023/10/16 04:26:57;;;;;;;2.45;0.90;;;19.70;46.90;;;;;;6268742;22;47069;-60
2023/10/16 04:29:28;;;;;;;1.38;0.75;;;19.70;46.90;;;;;;6274561;22;45079;-60
2023/10/16 04:31:58;;;;;;;2.13;0.90;;;19.70;47.70;;;;;;6274559;22;45176;-59
2023/10/16 04:34:39;;;;;;;1.50;0.82;;;19.80;48.50;;;;;;6273935;22;44997;-60
2023/10/16 04:37:29;;;;;;;1.30;0.80;;;19.80;49.00;;;;;;6271475;22;45222;-61
2023/10/16 04:43:09;;;;;;;1.58;0.85;;;19.80;49.90;;;;;;6275535;22;44601;-61
2023/10/16 04:45:59;;;;;;;1.30;0.68;;;19.90;50.40;;;;;;6271559;22;44780;-61
2023/10/16 04:48:39;;;;;;;1.88;1.00;;;19.90;50.60;;;;;;6275557;22;45397;-60
2023/10/16 04:51:17;;;;;;;2.10;0.93;;;19.90;51.10;;;;;;6276631;22;45138;-61
2023/10/16 04:54:13;;;;;;;2.85;1.10;;;19.90;51.00;;;;;;6273263;22;45146;-61
2023/10/16 04:57:37;;;;;;;5.70;0.90;;;19.90;51.40;;;;;;6275988;22;45215;-61
2023/10/16 04:59:59;;;;;;;1.40;0.88;;;19.90;51.70;;;;;;6276895;22;45444;-61
2023/10/16 05:02:40;;;;;;;2.75;0.80;;;19.90;51.80;;;;;;6275593;22;45163;-61
2023/10/16 05:08:05;;;;;;;2.08;1.00;;;19.90;51.90;;;;;;6276662;22;45374;-60
2023/10/16 05:13:24;;;;;;;1.00;0.70;;;19.90;52.20;;;;;;6277058;22;45252;-60
2023/10/16 05:18:46;;;;;;;1.27;0.80;;;19.90;52.60;;;;;;6277169;22;45197;-60
2023/10/16 06:16:17;;;;;;;1.83;1.10;;;19.90;51.80;;;;;;6275796;22;45172;-60
2023/10/16 06:18:46;;;;;;;1.92;0.90;;;19.90;51.90;;;;;;6275164;22;45104;-60
2023/10/16 06:21:14;;;;;;;1.58;1.20;;;19.90;52.10;;;;;;6276149;22;45122;-60
2023/10/16 06:23:48;;;;;;;1.77;0.93;;;19.90;52.10;;;;;;6276536;22;45336;-60
2023/10/16 06:26:15;;;;;;;2.15;1.02;;;19.90;52.20;;;;;;6275872;22;46991;-60
2023/10/16 06:28:48;;;;;;;1.13;0.80;;;19.90;52.30;;;;;;6275488;22;44897;-60
2023/10/16 06:31:22;;;;;;;0.88;0.70;;;19.90;52.10;;;;;;6276372;22;45071;-60
2023/10/16 06:33:53;;;;;;;2.75;1.05;;;19.90;52.20;;;;;;6276080;22;45325;-60
2023/10/16 06:36:20;;;;;;;1.58;0.77;;;19.90;52.10;;;;;;6272626;22;46123;-60
2023/10/16 06:38:51;;;;;;;1.85;0.98;;;19.90;52.00;;;;;;6274173;22;45157;-60
2023/10/16 06:41:18;;;;;;;2.58;1.13;;;19.90;52.20;;;;;;6273069;22;44656;-60
2023/10/16 06:43:47;;;;;;;2.38;1.08;;;19.90;52.30;;;;;;6275690;22;44987;-60
2023/10/16 06:46:21;;;;;;;1.30;0.95;;;19.90;52.50;;;;;;6272304;22;46531;-60
2023/10/16 06:48:50;;;;;;;1.75;0.95;;;19.90;52.70;;;;;;6275350;22;45770;-60
2023/10/16 06:51:17;;;;;;;2.55;1.02;;;19.90;52.60;;;;;;6274271;22;45082;-60
2023/10/16 06:53:44;;;;;;;2.00;0.93;;;19.90;52.90;;;;;;6276807;22;44714;-60
2023/10/16 06:56:27;;;;;;;1.27;0.88;;;19.90;52.70;;;;;;6273676;22;45204;-60
2023/10/16 06:58:55;;;;;;;1.25;0.95;;;19.90;52.80;;;;;;6276215;22;45014;-60
2023/10/16 07:01:25;;;;;;;2.83;0.90;;;19.90;52.60;;;;;;6274274;22;45223;-60
2023/10/16 07:03:54;;;;;;;1.60;0.90;;;19.90;52.80;;;;;;6276681;22;45073;-60
2023/10/16 07:06:24;;;;;;;2.20;0.90;;;19.90;52.70;;;;;;6272198;22;45081;-60
2023/10/16 07:08:52;;;;;;;1.15;0.70;;;19.90;52.80;;;;;;6273422;22;45074;-60
2023/10/16 07:11:21;;;;;;;1.40;0.70;;;19.90;52.90;;;;;;6271418;22;45071;-60
2023/10/16 07:13:47;;;;;;;1.88;0.98;;;19.90;52.90;;;;;;6276347;22;45051;-59
2023/10/16 07:16:15;;;;;;;2.08;0.98;;;20.00;52.70;;;;;;6275997;22;45246;-60
2023/10/16 07:18:43;;;;;;;3.05;1.20;;;20.00;52.70;;;;;;6272985;22;45083;-60
2023/10/16 07:21:17;;;;;;;1.10;0.93;;;19.90;52.90;;;;;;6273705;22;45031;-60
2023/10/16 07:23:45;;;;;;;1.42;0.65;;;20.00;52.60;;;;;;6275800;22;45012;-60
2023/10/16 07:26:14;;;;;;;0.70;0.68;;;20.00;52.80;;;;;;6273641;22;46971;-60
2023/10/16 07:28:43;;;;;;;1.90;0.90;;;19.90;52.60;;;;;;6275724;22;45054;-60
2023/10/16 07:31:14;;;;;;;0.93;0.80;;;19.90;52.70;;;;;;6273997;22;45095;-60
2023/10/16 07:33:42;;;;;;;2.83;1.00;;;19.90;52.80;;;;;;6273648;22;45050;-60
2023/10/16 07:36:12;;;;;;;2.67;0.93;;;19.90;52.90;;;;;;6272336;22;46437;-60
2023/10/16 07:38:41;;;;;;;2.53;1.10;;;19.90;52.90;;;;;;6272634;22;45031;-60
2023/10/16 07:41:12;;;;;;;1.25;0.85;;;19.90;52.90;;;;;;6275077;22;45006;-60
2023/10/16 07:43:39;;;;;;;1.27;0.85;;;19.90;53.10;;;;;;6275051;22;45471;-60
2023/10/16 07:48:52;;;;;;;1.65;0.80;;;19.90;53.30;;;;;;6275286;22;45103;-60
2023/10/16 07:51:21;;;;;;;1.40;0.73;;;19.90;53.30;;;;;;6273985;22;45030;-60
2023/10/16 07:53:50;;;;;;;4.85;1.20;;;19.90;53.60;;;;;;6273726;22;45085;-60
2023/10/16 07:56:25;;;;;;;8.60;1.52;;;19.90;53.90;;;;;;6274386;22;45178;-61
2023/10/16 07:58:55;;;;;;;10.40;1.70;;;19.90;54.50;;;;;;6272879;22;45273;-67
2023/10/16 08:01:36;;;;;;;7.35;1.48;;;20.00;54.20;;;;;;6275593;22;45125;-67
2023/10/16 08:04:05;;;;;;;3.47;1.00;;;20.00;54.20;;;;;;6275454;22;45105;-66
2023/10/16 08:06:32;;;;;;;3.17;1.10;;;20.00;54.20;;;;;;6272283;22;48129;-66
2023/10/16 08:11:45;;;;;;;2.70;0.80;;;20.00;54.20;;;;;;6275807;22;45106;-67
2023/10/16 08:14:13;;;;;;;3.65;1.50;;;20.00;54.20;;;;;;6275760;22;45249;-67
2023/10/16 08:16:40;;;;;;;1.08;0.73;;;20.00;54.20;;;;;;6274568;22;45371;-66
2023/10/16 08:19:14;;;;;;;2.00;0.90;;;20.00;54.20;;;;;;6275583;22;44790;-65
2023/10/16 08:21:43;;;;;;;1.17;0.93;;;20.00;54.20;;;;;;6275047;22;45082;-66
2023/10/16 08:24:13;;;;;;;1.65;0.80;;;20.00;54.30;;;;;;6275945;22;45085;-66
2023/10/16 08:26:43;;;;;;;1.23;0.82;;;20.00;54.20;;;;;;6274299;22;47017;-66
2023/10/16 08:29:19;;;;;;;1.70;0.75;;;20.00;54.20;;;;;;6275952;22;45104;-66
2023/10/16 08:31:52;;;;;;;1.05;0.68;;;20.00;54.20;;;;;;6274971;22;45062;-66
2023/10/16 08:34:20;;;;;;;1.17;0.75;;;20.00;54.50;;;;;;6272147;22;45173;-66
2023/10/16 08:36:50;;;;;;;1.20;0.90;;;20.00;54.90;;;;;;6268726;22;48184;-66
2023/10/16 08:39:21;;;;;;;1.73;0.98;;;20.00;55.20;;;;;;6273377;22;45141;-66
2023/10/16 08:41:53;;;;;;;2.05;0.90;;;20.00;55.20;;;;;;6271521;22;45196;-66
2023/10/16 08:44:21;;;;;;;1.73;1.08;;;20.00;55.50;;;;;;6271376;22;45107;-66
2023/10/16 08:49:38;;;;;;;1.58;0.90;;;20.00;57.00;;;;;;6275193;22;45066;-66
2023/10/16 08:52:08;;;;;;;2.20;0.88;;;20.00;56.20;;;;;;6273743;22;45104;-66
2023/10/16 08:55:00;;;;;;;1.80;0.90;;;20.00;56.40;;;;;;6274364;22;45201;-66
2023/10/16 08:57:27;;;;;;;1.73;0.73;;;20.00;57.70;;;;;;6271756;22;45110;-66
2023/10/16 08:59:57;;;;;;;1.67;0.75;;;20.00;56.90;;;;;;6275670;22;45086;-66
2023/10/16 09:02:26;;;;;;;2.65;1.10;;;20.00;57.10;;;;;;6275669;22;44891;-66
2023/10/16 09:04:54;;;;;;;0.82;0.73;;;20.00;57.30;;;;;;6276156;22;45252;-66
2023/10/16 09:07:23;;;;;;;1.65;0.95;;;20.00;57.40;;;;;;6274370;22;47485;-66
2023/10/16 09:09:53;;;;;;;1.52;0.88;;;20.00;57.20;;;;;;6275380;22;44633;-66
2023/10/16 09:12:26;;;;;;;2.25;0.95;;;20.00;57.20;;;;;;6275171;22;44984;-66
2023/10/16 09:14:53;;;;;;;2.33;0.93;;;20.10;57.20;;;;;;6275918;22;45101;-66
2023/10/16 09:17:20;;;;;;;2.17;0.80;;;20.10;57.40;;;;;;6271805;22;45412;-66
2023/10/16 09:19:48;;;;;;;0.98;0.75;;;20.10;57.40;;;;;;6275702;22;45089;-66
2023/10/16 09:22:17;;;;;;;2.55;1.23;;;20.10;57.50;;;;;;6275456;22;45118;-66
2023/10/16 09:24:45;;;;;;;3.47;1.10;;;20.10;57.40;;;;;;6273348;22;44898;-66
2023/10/16 09:27:16;;;;;;;1.98;0.88;;;20.10;57.60;;;;;;6272391;22;46312;-66
2023/10/16 09:29:53;;;;;;;2.75;1.00;;;20.10;57.60;;;;;;6273593;22;45130;-66
2023/10/16 09:32:25;;;;;;;1.75;0.82;;;20.10;57.80;;;;;;6275632;22;44593;-66
2023/10/16 09:34:53;;;;;;;2.72;0.90;;;20.10;57.90;;;;;;6273407;22;45091;-66
2023/10/16 09:37:24;;;;;;;1.08;0.90;;;20.10;57.80;;;;;;6274943;22;46322;-66
2023/10/16 09:39:53;;;;;;;2.00;0.93;;;20.10;58.30;;;;;;6276652;22;45035;-66
2023/10/16 09:42:25;;;;;;;1.75;0.80;;;20.10;58.70;;;;;;6274961;22;44869;-66
2023/10/16 09:44:59;;;;;;;3.72;1.00;;;20.10;58.80;;;;;;6276984;22;45058;-66
2023/10/16 09:47:26;;;;;;;1.50;0.60;;;20.10;58.80;;;;;;6273747;22;47149;-66
2023/10/16 09:49:54;;;;;;;2.53;1.13;;;20.10;58.80;;;;;;6276635;22;45113;-66
2023/10/16 09:52:22;;;;;;;1.95;0.80;;;20.10;58.90;;;;;;6276402;22;44543;-66
2023/10/16 09:54:49;;;;;;;2.25;1.05;;;20.10;58.90;;;;;;6275478;22;45047;-66
2023/10/16 09:57:19;;;;;;;1.75;0.80;;;20.10;59.00;;;;;;6273829;22;45157;-66
2023/10/16 09:59:53;;;;;;;1.70;0.90;;;20.10;59.10;;;;;;6277014;22;45213;-66
2023/10/16 10:02:25;;;;;;;2.03;1.00;;;20.10;58.90;;;;;;6276373;22;45079;-67
2023/10/16 10:04:59;;;;;;;1.92;1.10;;;20.10;59.00;;;;;;6277109;22;45438;-66
2023/10/16 10:07:38;;;;;;;1.77;1.10;;;20.10;58.80;;;;;;6275258;22;45469;-67
2023/10/16 10:12:51;;;;;;;1.75;1.00;;;20.10;58.10;;;;;;6276226;22;44605;-66
2023/10/16 10:15:26;;;;;;;2.08;0.90;;;20.10;58.50;;;;;;6276567;22;45062;-66
2023/10/16 10:17:55;;;;;;;2.70;1.00;;;20.10;58.50;;;;;;6276184;22;45160;-66
2023/10/16 10:20:26;;;;;;;1.60;0.90;;;20.20;58.30;;;;;;6276905;22;45063;-67
2023/10/16 10:22:58;;;;;;;2.55;1.23;;;20.20;58.50;;;;;;6277105;22;45129;-67
2023/10/16 10:25:35;;;;;;;3.95;1.00;;;20.20;58.60;;;;;;6276582;22;44618;-67
2023/10/16 10:28:09;;;;;;;3.40;1.40;;;20.20;58.40;;;;;;6276391;22;45132;-66
2023/10/16 10:30:43;;;;;;;4.60;1.23;;;20.20;58.60;;;;;;6276286;22;45054;-66
2023/10/16 10:33:11;;;;;;;3.00;1.00;;;20.20;58.50;;;;;;6277037;22;44602;-66
2023/10/16 10:35:39;;;;;;;3.22;1.02;;;20.30;58.60;;;;;;6275112;22;45204;-67
2023/10/16 10:38:18;;;;;;;1.85;0.93;;;20.20;58.80;;;;;;6275967;22;45165;-67
2023/10/16 10:41:13;;;;;;;2.25;1.15;;;20.20;58.80;;;;;;6276131;22;45118;-66
2023/10/16 10:43:44;;;;;;;2.40;0.90;;;20.20;58.70;;;;;;6273865;22;45126;-67
2023/10/16 10:46:14;;;;;;;4.07;1.42;;;20.20;58.90;;;;;;6270914;22;45120;-67
2023/10/16 10:48:44;;;;;;;2.30;1.20;;;20.20;59.10;;;;;;6274711;22;46973;-67
2023/10/16 10:51:14;;;;;;;3.92;1.10;;;20.20;59.20;;;;;;6272898;22;45044;-67
2023/10/16 10:53:54;;;;;;;1.92;1.10;;;20.20;59.20;;;;;;6274617;22;45064;-67
2023/10/16 10:56:21;;;;;;;1.70;1.00;;;20.20;59.10;;;;;;6275721;22;45347;-67
2023/10/16 10:58:49;;;;;;;2.50;1.13;;;20.20;59.10;;;;;;6275218;22;45201;-66
2023/10/16 11:01:26;;;;;;;4.40;1.48;;;20.20;59.20;;;;;;6275069;22;45116;-66
2023/10/16 11:03:55;;;;;;;1.73;0.90;;;20.20;59.50;;;;;;6275021;22;45167;-66
2023/10/16 11:06:31;;;;;;;1.70;1.00;;;20.20;59.70;;;;;;6274683;22;45098;-67
2023/10/16 11:09:11;;;;;;;2.20;1.20;;;20.10;59.90;;;;;;6275671;22;47227;-67
2023/10/16 11:11:40;;;;;;;3.05;1.20;;;20.10;60.00;;;;;;6273879;22;44860;-67
2023/10/16 11:14:08;;;;;;;2.13;1.23;;;20.20;60.00;;;;;;6276894;22;45124;-67
2023/10/16 11:16:44;;;;;;;1.50;0.93;;;20.20;60.30;;;;;;6276625;22;45221;-67
2023/10/16 11:19:23;;;;;;;2.05;1.10;;;20.20;60.30;;;;;;6274958;22;45222;-67
2023/10/16 11:21:50;;;;;;;3.67;1.20;;;20.20;60.30;;;;;;6276507;22;45074;-66
2023/10/16 11:24:17;;;;;;;2.80;1.20;;;20.20;60.30;;;;;;6274237;22;45093;-66
2023/10/16 11:26:45;;;;;;;2.53;1.27;;;20.20;60.30;;;;;;6275135;22;45178;-66
2023/10/16 11:29:13;;;;;;;1.92;1.08;;;20.20;60.40;;;;;;6275746;22;47132;-66
2023/10/16 11:31:41;;;;;;;2.17;1.42;;;20.20;60.30;;;;;;6276095;22;45095;-66
2023/10/16 11:34:21;;;;;;;2.03;1.02;;;20.20;60.30;;;;;;6275060;22;44617;-66
2023/10/16 11:36:50;;;;;;;2.08;1.10;;;20.20;60.40;;;;;;6276272;22;45057;-67
2023/10/16 11:39:20;;;;;;;2.72;1.30;;;20.20;60.70;;;;;;6276670;22;45403;-67
2023/10/16 11:41:48;;;;;;;1.90;1.10;;;20.20;60.50;;;;;;6276861;22;45082;-67
2023/10/16 11:44:16;;;;;;;2.78;1.20;;;20.20;60.50;;;;;;6277191;22;45174;-67
2023/10/16 11:46:47;;;;;;;2.65;0.95;;;20.20;60.70;;;;;;6275432;22;45079;-67
2023/10/16 11:49:22;;;;;;;3.17;1.00;;;20.20;60.60;;;;;;6277207;22;45267;-67
2023/10/16 11:51:50;;;;;;;2.13;1.10;;;20.20;60.40;;;;;;6276971;22;44936;-67
2023/10/16 11:54:20;;;;;;;2.53;1.20;;;20.20;60.10;;;;;;6277486;22;45090;-67
2023/10/16 11:56:48;;;;;;;1.73;1.10;;;20.20;60.20;;;;;;6275966;22;45070;-67
2023/10/16 11:59:15;;;;;;;3.03;1.00;;;20.20;60.30;;;;;;6276697;22;45201;-67
2023/10/16 12:01:43;;;;;;;1.98;1.05;;;20.20;60.00;;;;;;6276194;22;45343;-67
2023/10/16 12:04:11;;;;;;;1.90;1.02;;;20.20;60.30;;;;;;6277478;22;45126;-67
2023/10/16 12:06:41;;;;;;;2.65;1.15;;;20.20;60.30;;;;;;6276381;22;45055;-66
2023/10/16 12:09:13;;;;;;;1.95;1.00;;;20.20;60.60;;;;;;6276401;22;46998;-66
2023/10/16 12:11:42;;;;;;;1.48;0.70;;;20.10;60.30;;;;;;6276146;22;45088;-67
2023/10/16 12:14:13;;;;;;;2.08;0.90;;;20.10;60.20;;;;;;6277028;22;45164;-67
2023/10/16 12:16:41;;;;;;;1.38;1.00;;;20.10;60.30;;;;;;6276498;22;45173;-67
2023/10/16 12:19:09;;;;;;;2.65;1.10;;;20.10;60.30;;;;;;6276090;22;45338;-67
2023/10/16 12:21:36;;;;;;;1.65;0.70;;;20.20;60.60;;;;;;6276283;22;45077;-67
2023/10/16 12:24:05;;;;;;;1.67;0.82;;;20.10;60.50;;;;;;6276456;22;44627;-67
2023/10/16 12:26:34;;;;;;;1.30;0.90;;;20.10;60.30;;;;;;6275745;22;45215;-67
2023/10/16 12:29:01;;;;;;;2.35;1.00;;;20.20;60.50;;;;;;6276204;22;47753;-67
2023/10/16 12:31:28;;;;;;;1.80;1.00;;;20.20;60.40;;;;;;6276213;22;45130;-67
2023/10/16 12:33:55;;;;;;;2.53;0.98;;;20.20;60.50;;;;;;6276016;22;45097;-67
2023/10/16 12:36:23;;;;;;;4.05;0.77;;;20.20;60.30;;;;;;6274929;22;45371;-67
2023/10/16 12:38:53;;;;;;;1.17;0.75;;;20.20;60.30;;;;;;6275295;22;46468;-67
2023/10/16 12:41:23;;;;;;;0.90;0.60;;;20.20;60.20;;;;;;6275678;22;45075;-67
2023/10/16 12:43:50;;;;;;;1.20;0.80;;;20.20;60.40;;;;;;6276158;22;45114;-67
2023/10/16 12:46:17;;;;;;;1.25;0.82;;;20.20;60.50;;;;;;6274398;22;44632;-67
2023/10/16 12:48:44;;;;;;;1.95;0.80;;;20.20;60.70;;;;;;6274780;22;45232;-68
2023/10/16 12:51:11;;;;;;;2.47;1.08;;;20.20;60.70;;;;;;6275928;22;45136;-67
2023/10/16 12:53:38;;;;;;;1.90;0.70;;;20.20;60.60;;;;;;6275894;22;45075;-67
2023/10/16 12:56:06;;;;;;;1.02;0.90;;;20.20;60.50;;;;;;6275469;22;45097;-67
2023/10/16 12:58:35;;;;;;;2.58;0.80;;;20.20;60.30;;;;;;6275234;22;47260;-67
2023/10/16 13:01:04;;;;;;;1.30;0.65;;;20.20;60.60;;;;;;6275443;22;45074;-67
2023/10/16 13:03:33;;;;;;;1.63;0.80;;;20.20;60.80;;;;;;6275885;22;45149;-67
2023/10/16 13:06:00;;;;;;;1.05;0.70;;;20.20;60.70;;;;;;6275323;22;45071;-67
2023/10/16 13:08:27;;;;;;;2.15;1.00;;;20.20;61.00;;;;;;6275606;22;45016;-67
2023/10/16 13:10:54;;;;;;;1.35;0.70;;;20.20;61.10;;;;;;6276604;22;45174;-67
2023/10/16 13:13:21;;;;;;;2.58;1.00;;;20.20;61.20;;;;;;6276689;22;44988;-67
2023/10/16 13:15:54;;;;;;;1.30;0.88;;;20.20;61.20;;;;;;6277003;22;45097;-67
2023/10/16 13:18:27;;;;;;;3.03;0.93;;;20.20;61.10;;;;;;6272460;22;46484;-67
2023/10/16 13:21:03;;;;;;;1.42;0.90;;;20.20;61.00;;;;;;6276609;22;45011;-67
2023/10/16 13:23:33;;;;;;;1.83;0.77;;;20.20;61.10;;;;;;6276942;22;45114;-68
2023/10/16 13:26:00;;;;;;;1.90;1.00;;;20.20;61.40;;;;;;6276172;22;45056;-68
2023/10/16 13:28:27;;;;;;;1.52;0.77;;;20.10;61.10;;;;;;6275997;22;45426;-68
2023/10/16 13:30:55;;;;;;;2.30;1.05;;;20.20;61.20;;;;;;6276629;22;45087;-68
2023/10/16 13:33:22;;;;;;;2.30;1.08;;;20.20;61.20;;;;;;6277647;22;45005;-68
2023/10/16 13:35:50;;;;;;;1.15;0.70;;;20.20;61.10;;;;;;6274049;22;45027;-66
2023/10/16 13:38:18;;;;;;;1.17;0.93;;;20.20;61.10;;;;;;6275012;22;46406;-66
2023/10/16 13:40:46;;;;;;;0.82;0.80;;;20.20;61.00;;;;;;6276007;22;44656;-66
2023/10/16 13:43:17;;;;;;;1.45;0.77;;;20.20;61.20;;;;;;6274111;22;45125;-67
2023/10/16 13:45:44;;;;;;;3.60;1.08;;;20.20;61.30;;;;;;6274138;22;45216;-67
2023/10/16 13:48:15;;;;;;;1.48;0.90;;;20.20;61.20;;;;;;6274380;22;45143;-67
2023/10/16 13:50:43;;;;;;;2.42;0.80;;;20.20;61.00;;;;;;6275686;22;45048;-67
2023/10/16 13:53:10;;;;;;;1.35;0.75;;;20.20;61.00;;;;;;6277945;22;45083;-67
2023/10/16 13:55:37;;;;;;;2.22;0.80;;;20.20;60.90;;;;;;6278154;22;45039;-68
2023/10/16 13:58:06;;;;;;;1.08;0.80;;;20.20;60.90;;;;;;6277631;22;46256;-68
2023/10/16 14:00:36;;;;;;;1.35;0.77;;;20.20;61.10;;;;;;6277677;22;45157;-67
2023/10/16 14:03:07;;;;;;;2.35;0.90;;;20.20;61.00;;;;;;6274565;22;45245;-66
2023/10/16 14:05:40;;;;;;;1.35;0.80;;;20.20;61.00;;;;;;6275456;22;45189;-67
2023/10/16 14:08:09;;;;;;;1.85;1.00;;;20.20;60.90;;;;;;6275700;22;46881;-67
2023/10/16 14:10:38;;;;;;;2.00;0.98;;;20.20;60.80;;;;;;6275310;22;45095;-67
2023/10/16 14:13:18;;;;;;;1.10;0.70;;;20.20;61.00;;;;;;6275711;22;45058;-67
2023/10/16 14:15:46;;;;;;;2.60;0.90;;;20.20;61.20;;;;;;6276129;22;45220;-67
2023/10/16 14:18:15;;;;;;;1.67;1.00;;;20.20;61.20;;;;;;6277523;22;45393;-67
2023/10/16 14:20:46;;;;;;;2.33;1.00;;;20.20;61.00;;;;;;6277913;22;45088;-67
2023/10/16 14:23:13;;;;;;;1.73;0.80;;;20.20;61.00;;;;;;6278667;22;45059;-67